Eureka, WI (54934)

3:04 PM CDT on September 01, 2014 (GMT -0500)
City of Omro | Change Station
CLOSE
Current Station
Personal Weather Station
Location: Omro, WI
Elevation: 764 ft
Nearby Weather Stations

Elev 764 ft 44.03 °N, 88.75 °W | Updated 4 seconds ago

Overcast
Overcast
73.7 °F
Feels Like 74 °F
N
10.4
Wind Variable Wind from WSW
Gusts 10.4 mph

Today
High -- | Low -- °F
--% Chance of Precip.
Yesterday
High -- | Low -- °F
Precip. -- in
6:18 AM 7:31 PM
Waxing Crescent, 43% visible
Pressure 29.66 in
Visibility 10.0 miles
Clouds Overcast 3000 ft
Heat Index 74 °F
Dew Point 67 °F
Humidity 80%
Rainfall 0.37 in
Snow Depth Not available.
UV 2 out of 12
Pollen 3.90 out of 12
PM2.5 Good
Flu Activity Not available.
METAR KOSH 011953Z 24007KT 10SM OVC030 22/19 A2969 RMK AO2 SLP042 T02220189

More Conditions Fewer Conditions

Pressure 29.66 in
Visibility 10.0 miles
Clouds Overcast 3000 ft
Heat Index 74 °F
Dew Point 67 °F
Humidity 80%
Rainfall 0.37 in
Snow Depth Not available.
UV 2 out of 12
Pollen 3.90 out of 12
PM2.5 Good
Flu Activity Not available.
METAR KOSH 011953Z 24007KT 10SM OVC030 22/19 A2969 RMK AO2 SLP042 T02220189

More Conditions Fewer Conditions

Nowcast | as of 1:55 PM CDT on September 1, 2014

scattered showers expected through the afternoon... Scattered showers will continue to affect the area for the middle to late afternoon hours. A few of the showers will likely intensity into thunderstorms...which could produce brief heavy rains. But overall...the rain will not be nearly as persistent as it was during the morning. Mostly cloudy skies and humid conditions will also continue through the afternoon. By late afternoon...temperatures should range from around 70 degrees in north-central Wisconsin...to the lower to middle 70s in east- central Wisconsin.

×

10-Day Weather Forecast

Almanac

Astronomy

Sep. 01, 2014 Rise Set
Actual Time 6:18 AM CDT 7:31 PM CDT
Civil Twilight 5:48 AM CDT 8:00 PM CDT
Nautical Twilight 5:13 AM CDT 8:36 PM CDT
Astronomical Twilight 4:35 AM CDT 9:14 PM CDT
Moon 1:18 PM CDT 11:18 PM CDT
Length of Visible Light 14h 12m
Length of Day
13h 12m
Tomorrow will be 2m 55s shorter.
Waxing Crescent, 43% of the Moon is Illuminated
Today
Waxing Crescent
Sep 2
First Quarter
Sep 8
Full
Sep 15
Last Quarter
Sep 24
New

Today's Extremes

State Highs State Lows

Community

WunderPhotos

Upload Photos

1,749,394 photos uploaded!

WunderBlogs® & News

Nearby

Air Quality

  Air Quality AQ Index Pollutant
Yesterday Good
OZONE
Yesterday Good
PM10
Current Good
PM2.5
Monday Good
PM2.5
Monday Good
OZONE
Tuesday Good
PM2.5
Tuesday Good
OZONE

Snow Depth

Station Depth Elevation
No new snow has been reported.

Earthquake Activity

City Distance Mag. Time & Date
No recent earthquake activity has been reported nearby.
Minimum magnitude displayed is 2.5.

Coastal Water Temperatures

Place Temperature
No Stations Reporting

Nearby Weather Stations